Tabellarische Übersicht vom Samstag, den 22.01.2022

Oder anderes Datum wählen:






max 4,3°C 96,0% 3,7°C 1032,5hPa 4,0°C 23,4km/h (4Bft) 10,3km/h 302° (NW) ∑1,6l/m² 4,000klx ∑80,3min
min 3,2°C 95,0% 2,5°C 1031,0hPa -7,0°C 5,8km/h (1Bft) 2,9km/h 242° (SW) ∑1,6l/m² 0,000klx ∑80,3min
Ø 3,6°C 96,0% 3,0°C 1031,4hPa -2,0°C 13,6km/h (3Bft) 6,4km/h 271° (W) ∑1,6l/m² 1,000klx ∑80,3min
Zeit Temperatur Luftfeuchte Taupunkt Luftdruck Windchill Windböen Windgeschwindigkeit Windrichtung Regen Helligkeit Regenzeit
09:45 4,3°C 95,9% 3,7°C 1032,3hPa 4,3°C 10,8km/h (2Bft) 5,6km/h 259° (W) 0,0l/m² 3,524klx 0,0min
09:40 4,3°C 95,9% 3,7°C 1032,3hPa 4,3°C 7,9km/h (2Bft) 4,1km/h 269° (W) 0,0l/m² 4,212klx 0,0min
09:35 4,2°C 95,9% 3,6°C 1032,4hPa 4,2°C 13,0km/h (3Bft) 6,2km/h 267° (W) 0,0l/m² 2,871klx 0,0min
09:30 4,2°C 95,9% 3,6°C 1032,4hPa 4,2°C 11,2km/h (2Bft) 5,1km/h 276° (W) 0,0l/m² 2,552klx 0,0min
09:25 4,2°C 95,9% 3,6°C 1032,4hPa 4,2°C 9,7km/h (2Bft) 4,7km/h 266° (W) 0,0l/m² 2,862klx 0,0min
09:20 4,2°C 95,9% 3,6°C 1032,4hPa 4,2°C 7,6km/h (2Bft) 4,5km/h 262° (W) 0,0l/m² 2,279klx 0,0min
09:15 4,2°C 96,0% 3,6°C 1032,4hPa 4,2°C 6,8km/h (2Bft) 3,2km/h 267° (W) 0,0l/m² 2,003klx 0,0min
09:10 4,2°C 95,9% 3,6°C 1032,5hPa 4,2°C 11,2km/h (2Bft) 6,1km/h 267° (W) 0,0l/m² 1,525klx 0,0min
09:05 4,2°C 96,0% 3,6°C 1032,4hPa 4,2°C 8,6km/h (2Bft) 5,2km/h 268° (W) 0,0l/m² 1,239klx 0,0min
09:00 4,2°C 96,0% 3,6°C 1032,4hPa 4,2°C 7,9km/h (2Bft) 4,5km/h 279° (W) 0,0l/m² 1,471klx 0,0min
08:55 4,2°C 96,0% 3,6°C 1032,4hPa 4,2°C 10,4km/h (2Bft) 5,3km/h 279° (W) 0,0l/m² 1,369klx 0,0min
08:50 4,2°C 96,0% 3,6°C 1032,3hPa 4,2°C 8,6km/h (2Bft) 4,5km/h 276° (W) 0,0l/m² 0,823klx 0,0min
08:45 4,2°C 96,1% 3,6°C 1032,3hPa 4,2°C 11,2km/h (2Bft) 5,4km/h 270° (W) 0,0l/m² 0,590klx 0,0min
08:40 4,2°C 96,1% 3,6°C 1032,2hPa 4,2°C 8,6km/h (2Bft) 4,1km/h 278° (W) 0,0l/m² 0,588klx 0,0min
08:35 4,1°C 96,1% 3,6°C 1032,2hPa 4,1°C 10,1km/h (2Bft) 4,2km/h 273° (W) 0,0l/m² 0,582klx 0,0min
08:30 4,1°C 96,2% 3,6°C 1032,1hPa 4,1°C 5,8km/h (1Bft) 2,9km/h 294° (NW) 0,0l/m² 0,436klx 0,0min
08:25 4,1°C 96,2% 3,6°C 1032,0hPa 4,1°C 9,4km/h (2Bft) 4,3km/h 271° (W) 0,0l/m² 0,311klx 0,0min
08:20 4,2°C 96,0% 3,6°C 1031,9hPa 3,2°C 14,4km/h (3Bft) 7,5km/h 298° (NW) 0,0l/m² 0,187klx 0,0min
08:15 4,2°C 95,9% 3,6°C 1031,9hPa 3,9°C 14,8km/h (3Bft) 6,7km/h 302° (NW) 0,0l/m² 0,114klx 0,0min
08:10 4,2°C 96,1% 3,6°C 1031,8hPa 4,2°C 12,2km/h (3Bft) 6,0km/h 294° (NW) 0,0l/m² 0,050klx 0,0min
08:05 4,1°C 96,0% 3,6°C 1031,8hPa 3,2°C 15,8km/h (3Bft) 7,5km/h 295° (NW) 0,0l/m² 0,021klx 0,0min
08:00 4,1°C 95,9% 3,5°C 1031,8hPa 2,9°C 14,4km/h (3Bft) 7,7km/h 299° (NW) 0,0l/m² 0,009klx 0,0min
07:55 4,1°C 96,0% 3,5°C 1031,8hPa 4,1°C 13,7km/h (3Bft) 5,7km/h 285° (W) 0,0l/m² 0,004klx 0,0min
07:50 4,1°C 96,0% 3,5°C 1031,8hPa 3,0°C 13,3km/h (3Bft) 7,6km/h 293° (NW) 0,0l/m² 0,002klx 0,0min
07:45 4,1°C 96,1% 3,5°C 1031,7hPa 4,1°C 13,3km/h (3Bft) 6,2km/h 299° (NW) 0,0l/m² 0,001klx 0,0min
07:40 4,1°C 96,0% 3,5°C 1031,6hPa 3,6°C 11,5km/h (2Bft) 7,0km/h 287° (W) 0,0l/m² 0,000klx 0,0min
07:35 4,1°C 96,0% 3,5°C 1031,6hPa 4,1°C 13,7km/h (3Bft) 6,3km/h 297° (NW) 0,0l/m² 0,000klx 0,0min
07:30 4,1°C 96,0% 3,5°C 1031,6hPa 3,9°C 14,0km/h (3Bft) 6,6km/h 292° (W) 0,0l/m² 0,000klx 0,0min
07:25 4,0°C 96,0% 3,5°C 1031,6hPa 3,1°C 14,8km/h (3Bft) 7,4km/h 300° (NW) 0,0l/m² 0,000klx 0,0min
07:20 4,0°C 96,0% 3,4°C 1031,5hPa 3,4°C 12,6km/h (3Bft) 7,1km/h 282° (W) 0,0l/m² 0,000klx 0,0min
07:15 4,0°C 96,0% 3,4°C 1031,5hPa 4,0°C 10,8km/h (2Bft) 5,1km/h 293° (NW) 0,0l/m² 0,000klx 0,0min
07:10 4,0°C 96,0% 3,4°C 1031,4hPa 4,0°C 11,2km/h (2Bft) 5,6km/h 287° (W) 0,0l/m² 0,000klx 0,0min
07:05 3,9°C 96,0% 3,3°C 1031,3hPa 3,9°C 11,2km/h (2Bft) 5,5km/h 273° (W) 0,0l/m² 0,000klx 0,0min
07:00 3,9°C 96,0% 3,3°C 1031,3hPa 3,9°C 9,0km/h (2Bft) 4,9km/h 275° (W) 0,0l/m² 0,000klx 0,0min
06:55 3,9°C 96,0% 3,3°C 1031,2hPa 3,9°C 14,8km/h (3Bft) 6,3km/h 272° (W) 0,0l/m² 0,000klx 0,0min
06:50 3,9°C 96,0% 3,3°C 1031,2hPa 3,5°C 15,5km/h (3Bft) 6,8km/h 267° (W) 0,0l/m² 0,000klx 0,0min
06:45 3,8°C 96,0% 3,3°C 1031,2hPa 3,8°C 13,0km/h (3Bft) 6,2km/h 268° (W) 0,0l/m² 0,000klx 0,0min
06:40 3,8°C 96,0% 3,2°C 1031,2hPa 3,7°C 13,3km/h (3Bft) 6,6km/h 273° (W) 0,0l/m² 0,000klx 0,0min
06:35 3,8°C 96,0% 3,2°C 1031,2hPa 3,8°C 14,0km/h (3Bft) 5,3km/h 268° (W) 0,0l/m² 0,000klx 0,0min
06:30 3,8°C 96,0% 3,2°C 1031,2hPa 3,8°C 16,2km/h (3Bft) 6,2km/h 290° (W) 0,0l/m² 0,000klx 0,0min
06:25 3,8°C 96,0% 3,2°C 1031,2hPa 2,6°C 15,5km/h (3Bft) 7,7km/h 269° (W) 0,0l/m² 0,000klx 0,0min
06:20 3,7°C 96,0% 3,2°C 1031,2hPa 3,7°C 11,5km/h (2Bft) 5,6km/h 281° (W) 0,0l/m² 0,000klx 0,0min
06:15 3,7°C 96,0% 3,1°C 1031,2hPa 3,7°C 12,6km/h (3Bft) 6,4km/h 267° (W) 0,0l/m² 0,000klx 0,0min
06:10 3,7°C 96,0% 3,1°C 1031,3hPa 3,7°C 9,7km/h (2Bft) 5,5km/h 273° (W) 0,0l/m² 0,000klx 0,0min
06:05 3,6°C 96,0% 3,1°C 1031,3hPa 3,6°C 11,5km/h (2Bft) 5,7km/h 277° (W) 0,0l/m² 0,000klx 1,6min
06:00 3,6°C 96,1% 3,0°C 1031,3hPa 3,6°C 10,8km/h (2Bft) 5,8km/h 269° (W) 0,0l/m² 0,000klx 1,3min
05:55 3,6°C 96,0% 3,0°C 1031,2hPa 3,6°C 11,2km/h (2Bft) 5,8km/h 265° (W) 0,0l/m² 0,000klx 0,7min
05:50 3,5°C 96,0% 3,0°C 1031,2hPa 3,5°C 10,1km/h (2Bft) 4,8km/h 271° (W) 0,0l/m² 0,000klx 4,9min
05:45 3,6°C 96,1% 3,0°C 1031,2hPa 3,6°C 12,6km/h (3Bft) 5,4km/h 274° (W) 0,0l/m² 0,000klx 2,0min
05:40 3,5°C 96,1% 3,0°C 1031,2hPa 3,5°C 10,1km/h (2Bft) 5,5km/h 284° (W) 0,0l/m² 0,000klx 1,2min
05:35 3,5°C 96,1% 2,9°C 1031,2hPa 3,4°C 14,0km/h (3Bft) 6,5km/h 274° (W) 0,0l/m² 0,000klx 2,9min
05:30 3,5°C 96,0% 2,9°C 1031,2hPa 3,5°C 7,9km/h (2Bft) 4,5km/h 269° (W) 0,0l/m² 0,000klx 1,0min
05:25 3,5°C 96,1% 2,9°C 1031,1hPa 3,1°C 13,3km/h (3Bft) 6,8km/h 259° (W) 0,0l/m² 0,000klx 0,2min
05:20 3,4°C 96,0% 2,9°C 1031,2hPa 3,4°C 13,7km/h (3Bft) 6,2km/h 268° (W) 0,0l/m² 0,000klx 0,0min
05:15 3,4°C 95,9% 2,8°C 1031,2hPa 3,2°C 12,6km/h (3Bft) 6,7km/h 273° (W) 0,0l/m² 0,000klx 0,0min
05:10 3,4°C 95,9% 2,8°C 1031,2hPa 3,2°C 14,4km/h (3Bft) 6,7km/h 269° (W) 0,0l/m² 0,000klx 0,0min
05:05 3,4°C 95,9% 2,8°C 1031,2hPa 2,0°C 15,8km/h (3Bft) 7,9km/h 267° (W) 0,0l/m² 0,000klx 0,0min
05:00 3,4°C 95,9% 2,8°C 1031,2hPa 3,4°C 17,3km/h (3Bft) 6,4km/h 267° (W) 0,0l/m² 0,000klx 0,0min
04:55 3,4°C 95,9% 2,8°C 1031,1hPa 3,4°C 14,4km/h (3Bft) 5,8km/h 266° (W) 0,0l/m² 0,000klx 0,0min
04:50 3,3°C 95,9% 2,7°C 1031,2hPa 3,3°C 14,8km/h (3Bft) 6,4km/h 273° (W) 0,0l/m² 0,000klx 0,0min
04:45 3,3°C 95,9% 2,7°C 1031,1hPa 3,3°C 14,0km/h (3Bft) 6,1km/h 276° (W) 0,0l/m² 0,000klx 0,0min
04:40 3,3°C 95,8% 2,7°C 1031,1hPa 2,9°C 15,8km/h (3Bft) 6,9km/h 290° (W) 0,0l/m² 0,000klx 0,0min
04:35 3,3°C 95,8% 2,7°C 1031,1hPa 1,4°C 15,8km/h (3Bft) 8,5km/h 272° (W) 0,0l/m² 0,000klx 0,0min
04:30 3,3°C 95,8% 2,7°C 1031,0hPa 3,3°C 16,9km/h (3Bft) 6,5km/h 269° (W) 0,0l/m² 0,000klx 0,0min
04:25 3,3°C 95,8% 2,7°C 1031,0hPa 3,3°C 13,0km/h (3Bft) 5,8km/h 272° (W) 0,0l/m² 0,000klx 0,0min
04:20 3,3°C 95,8% 2,7°C 1031,0hPa 3,1°C 14,0km/h (3Bft) 6,6km/h 260° (W) 0,0l/m² 0,000klx 0,0min
04:15 3,3°C 95,8% 2,6°C 1031,1hPa 2,4°C 17,3km/h (3Bft) 7,3km/h 257° (W) 0,0l/m² 0,000klx 0,0min
04:10 3,3°C 95,6% 2,7°C 1031,1hPa 2,1°C 19,1km/h (3Bft) 7,7km/h 272° (W) 0,0l/m² 0,000klx 0,0min
04:05 3,3°C 95,6% 2,6°C 1031,0hPa 3,3°C 13,3km/h (3Bft) 6,4km/h 269° (W) 0,0l/m² 0,000klx 0,0min
04:00 3,3°C 95,6% 2,6°C 1031,0hPa 2,3°C 16,9km/h (3Bft) 7,4km/h 267° (W) 0,0l/m² 0,000klx 0,0min
03:55 3,3°C 95,5% 2,6°C 1031,0hPa 2,1°C 19,1km/h (3Bft) 7,7km/h 259° (W) 0,0l/m² 0,000klx 0,0min
03:50 3,2°C 95,5% 2,6°C 1031,0hPa 3,2°C 11,5km/h (2Bft) 5,3km/h 267° (W) 0,0l/m² 0,000klx 0,0min
03:45 3,2°C 95,5% 2,6°C 1031,0hPa 3,2°C 12,2km/h (3Bft) 6,3km/h 259° (W) 0,0l/m² 0,000klx 0,0min
03:40 3,2°C 95,3% 2,5°C 1031,1hPa 1,7°C 16,9km/h (3Bft) 8,0km/h 253° (W) 0,0l/m² 0,000klx 0,0min
03:35 3,2°C 95,4% 2,5°C 1031,1hPa 2,6°C 11,9km/h (2Bft) 7,1km/h 266° (W) 0,0l/m² 0,000klx 0,0min
03:30 3,2°C 95,4% 2,5°C 1031,1hPa 3,1°C 13,7km/h (3Bft) 6,6km/h 268° (W) 0,0l/m² 0,000klx 0,0min
03:25 3,2°C 95,4% 2,5°C 1031,1hPa 3,2°C 14,0km/h (3Bft) 5,7km/h 267° (W) 0,0l/m² 0,000klx 0,0min
03:20 3,2°C 95,3% 2,5°C 1031,2hPa 1,9°C 15,8km/h (3Bft) 7,8km/h 263° (W) 0,0l/m² 0,000klx 4,8min
03:15 3,2°C 95,4% 2,5°C 1031,2hPa 3,2°C 11,9km/h (2Bft) 5,7km/h 253° (W) 0,0l/m² 0,000klx 5,0min
03:10 3,2°C 95,4% 2,5°C 1031,1hPa 3,2°C 10,8km/h (2Bft) 4,7km/h 269° (W) 0,0l/m² 0,000klx 5,0min
03:05 3,2°C 95,3% 2,5°C 1031,1hPa 3,2°C 11,5km/h (2Bft) 5,6km/h 242° (SW) 0,0l/m² 0,000klx 5,0min
03:00 3,2°C 95,3% 2,5°C 1031,2hPa 2,1°C 16,6km/h (3Bft) 7,6km/h 266° (W) 0,0l/m² 0,000klx 5,0min
02:55 3,2°C 95,3% 2,5°C 1031,2hPa 3,2°C 14,4km/h (3Bft) 6,2km/h 250° (W) 0,0l/m² 0,000klx 5,0min
02:50 3,2°C 95,3% 2,5°C 1031,1hPa 2,1°C 13,7km/h (3Bft) 7,6km/h 254° (W) 0,0l/m² 0,000klx 5,0min
02:45 3,2°C 95,2% 2,5°C 1031,2hPa 2,9°C 13,7km/h (3Bft) 6,7km/h 246° (SW) 0,0l/m² 0,000klx 5,0min
02:40 3,2°C 95,3% 2,5°C 1031,2hPa 2,2°C 13,3km/h (3Bft) 7,5km/h 251° (W) 0,0l/m² 0,000klx 5,0min
02:35 3,2°C 95,3% 2,5°C 1031,2hPa 1,8°C 15,5km/h (3Bft) 8,0km/h 265° (W) 0,0l/m² 0,000klx 5,0min
02:30 3,2°C 95,2% 2,5°C 1031,1hPa 3,2°C 13,7km/h (3Bft) 5,8km/h 259° (W) 0,1l/m² 0,000klx 5,0min
02:25 3,2°C 95,2% 2,5°C 1031,1hPa 3,2°C 13,7km/h (3Bft) 6,5km/h 257° (W) 0,1l/m² 0,000klx 5,0min
02:20 3,3°C 95,2% 2,5°C 1031,1hPa 2,1°C 15,1km/h (3Bft) 7,6km/h 249° (W) 0,0l/m² 0,000klx 0,3min
02:15 3,3°C 95,1% 2,6°C 1031,1hPa 2,7°C 14,4km/h (3Bft) 7,0km/h 262° (W) 0,0l/m² 0,000klx 0,0min
02:10 3,3°C 95,1% 2,6°C 1031,1hPa 3,3°C 8,3km/h (2Bft) 4,2km/h 270° (W) 0,0l/m² 0,000klx 0,0min
02:05 3,3°C 95,1% 2,6°C 1031,1hPa 3,3°C 11,2km/h (2Bft) 4,6km/h 259° (W) 0,0l/m² 0,000klx 0,0min
02:00 3,3°C 95,0% 2,6°C 1031,1hPa 2,1°C 14,4km/h (3Bft) 7,7km/h 273° (W) 0,0l/m² 0,000klx 0,0min
01:55 3,3°C 95,0% 2,6°C 1031,1hPa 3,3°C 11,9km/h (2Bft) 5,3km/h 269° (W) 0,0l/m² 0,000klx 0,0min
01:50 3,3°C 94,8% 2,6°C 1031,1hPa 2,7°C 18,0km/h (3Bft) 7,1km/h 271° (W) 0,0l/m² 0,000klx 0,7min
01:45 3,3°C 94,8% 2,6°C 1031,2hPa 3,3°C 14,4km/h (3Bft) 5,3km/h 271° (W) 0,0l/m² 0,000klx 0,5min
01:40 3,3°C 94,8% 2,6°C 1031,2hPa 3,2°C 13,0km/h (3Bft) 6,6km/h 263° (W) 0,0l/m² 0,000klx 2,1min
01:35 3,3°C 94,9% 2,6°C 1031,2hPa 3,3°C 16,6km/h (3Bft) 6,5km/h 263° (W) 0,0l/m² 0,000klx 0,0min
01:30 3,3°C 94,9% 2,6°C 1031,2hPa 2,7°C 12,6km/h (3Bft) 7,1km/h 262° (W) 0,0l/m² 0,000klx 0,5min
01:25 3,3°C 94,9% 2,6°C 1031,3hPa 3,3°C 16,2km/h (3Bft) 6,5km/h 272° (W) 0,0l/m² 0,000klx 0,6min
01:20 3,3°C 94,9% 2,6°C 1031,2hPa 2,4°C 14,0km/h (3Bft) 7,4km/h 270° (W) 0,0l/m² 0,000klx 0,0min
01:15 3,3°C 94,9% 2,6°C 1031,2hPa 2,2°C 19,1km/h (3Bft) 7,6km/h 260° (W) 0,0l/m² 0,000klx 0,0min
01:10 3,3°C 94,9% 2,6°C 1031,2hPa 3,2°C 17,3km/h (3Bft) 6,6km/h 261° (W) 0,0l/m² 0,000klx 0,0min
01:05 3,3°C 94,9% 2,6°C 1031,2hPa 2,1°C 13,3km/h (3Bft) 7,7km/h 258° (W) 0,0l/m² 0,000klx 0,0min
01:00 3,4°C 94,9% 2,6°C 1031,2hPa 0,9°C 18,4km/h (3Bft) 9,2km/h 274° (W) 0,0l/m² 0,000klx 0,0min
00:55 3,4°C 95,0% 2,6°C 1031,2hPa 3,4°C 18,7km/h (3Bft) 6,3km/h 260° (W) 0,0l/m² 0,000klx 0,0min
00:50 3,4°C 94,9% 2,6°C 1031,3hPa 1,5°C 19,4km/h (3Bft) 8,5km/h 268° (W) 0,0l/m² 0,000klx 0,0min
00:45 3,4°C 95,0% 2,7°C 1031,2hPa 3,4°C 14,0km/h (3Bft) 6,4km/h 278° (W) 0,0l/m² 0,000klx 0,0min
00:40 3,4°C 94,9% 2,6°C 1031,2hPa 2,0°C 16,2km/h (3Bft) 7,9km/h 269° (W) 0,0l/m² 0,000klx 0,0min
00:35 3,4°C 94,9% 2,7°C 1031,2hPa 0,9°C 19,1km/h (3Bft) 9,2km/h 264° (W) 0,0l/m² 0,000klx 0,0min
00:30 3,4°C 94,9% 2,7°C 1031,2hPa 0,1°C 23,0km/h (4Bft) 10,3km/h 268° (W) 0,0l/m² 0,000klx 0,0min
00:25 3,4°C 94,9% 2,7°C 1031,3hPa 1,6°C 19,4km/h (3Bft) 8,4km/h 277° (W) 0,0l/m² 0,000klx 0,0min
00:20 3,4°C 94,9% 2,7°C 1031,3hPa 0,3°C 23,4km/h (4Bft) 10,0km/h 273° (W) 0,1l/m² 0,000klx 0,0min
00:15 3,4°C 94,9% 2,7°C 1031,3hPa 2,3°C 13,7km/h (3Bft) 7,6km/h 265° (W) 0,0l/m² 0,000klx 0,0min
00:10 3,4°C 94,9% 2,7°C 1031,3hPa 2,3°C 15,1km/h (3Bft) 7,7km/h 268° (W) 0,0l/m² 0,000klx 0,0min
00:05 3,4°C 94,9% 2,7°C 1031,3hPa 1,2°C 18,7km/h (3Bft) 8,9km/h 267° (W) 0,0l/m² 0,000klx 0,0min
00:00 3,5°C 94,9% 2,7°C 1031,2hPa 3,5°C 15,5km/h (3Bft) 6,0km/h 281° (W) 0,0l/m² 0,000klx 0,0min

Aktuelle Wetterdaten

22.01.2022 09:45 Uhr